Time;durP1;ratioP1;P1;durP2;ratioP2;P2;SDS_P1;SDS_P2;PMS_P1;PMS_P2;Temp;Humidity;BMP_temperature;BMP_pressure;BME280_temperature;BME280_humidity;BME280_pressure;Samples;Min_cycle;Max_cycle;Signal;HPM_P1;HPM_P2
2023/02/04 00:01:57;;;;;;;14.68;3.50;;;;;;;;;;4993726;28;20461;-73
2023/02/04 00:04:23;;;;;;;8.45;3.20;;;;;;;;;;4993782;28;20029;-75
2023/02/04 00:06:49;;;;;;;5.20;1.55;;;;;;;;;;4994970;28;20073;-74
2023/02/04 00:09:17;;;;;;;4.63;1.52;;;;;;;;;;4998294;28;20030;-75
2023/02/04 00:11:44;;;;;;;3.75;1.90;;;;;;;;;;5000417;28;20052;-74
2023/02/04 00:14:10;;;;;;;4.85;1.52;;;;;;;;;;4999084;28;20022;-75
2023/02/04 00:16:36;;;;;;;5.50;1.95;;;;;;;;;;4994884;28;20489;-74
2023/02/04 00:19:02;;;;;;;5.13;2.17;;;;;;;;;;4992245;28;20033;-74
2023/02/04 00:21:28;;;;;;;3.35;1.50;;;;;;;;;;4992737;28;20019;-74
2023/02/04 00:23:54;;;;;;;5.80;2.45;;;;;;;;;;4992814;28;20041;-75
2023/02/04 00:26:20;;;;;;;5.30;1.48;;;;;;;;;;4993113;28;20373;-75
2023/02/04 00:28:46;;;;;;;6.43;2.17;;;;;;;;;;4992015;28;20018;-74
2023/02/04 00:31:12;;;;;;;2.50;1.70;;;;;;;;;;4992597;28;20022;-74
2023/02/04 00:33:47;;;;;;;3.95;1.60;;;;;;;;;;4992739;28;20105;-71
2023/02/04 00:36:13;;;;;;;2.85;1.70;;;;;;;;;;4991411;28;20518;-73
2023/02/04 00:38:39;;;;;;;4.30;2.05;;;;;;;;;;4990631;28;20030;-74
2023/02/04 00:41:05;;;;;;;2.88;1.67;;;;;;;;;;4992500;28;20448;-73
2023/02/04 00:43:32;;;;;;;3.20;1.88;;;;;;;;;;4992053;28;20477;-74
2023/02/04 00:45:58;;;;;;;4.75;1.50;;;;;;;;;;4991073;28;20026;-73
2023/02/04 00:48:24;;;;;;;2.08;1.17;;;;;;;;;;4990488;28;20077;-74
2023/02/04 00:50:50;;;;;;;2.20;1.63;;;;;;;;;;4992533;28;20030;-75
2023/02/04 00:53:16;;;;;;;3.50;1.02;;;;;;;;;;4992353;28;20023;-74
2023/02/04 00:55:42;;;;;;;3.22;1.10;;;;;;;;;;4992352;28;20080;-74
2023/02/04 00:58:08;;;;;;;1.67;0.70;;;;;;;;;;4990162;28;20040;-73
2023/02/04 01:00:34;;;;;;;2.05;1.25;;;;;;;;;;4991875;28;20018;-73
2023/02/04 01:02:59;;;;;;;1.80;0.77;;;;;;;;;;4992363;28;20568;-72
2023/02/04 01:05:26;;;;;;;2.67;0.93;;;;;;;;;;4990526;28;20022;-74
2023/02/04 01:07:52;;;;;;;3.67;0.85;;;;;;;;;;4990195;28;20081;-75
2023/02/04 01:10:18;;;;;;;1.45;0.80;;;;;;;;;;4992321;28;20057;-74
2023/02/04 01:12:44;;;;;;;1.13;0.80;;;;;;;;;;4992377;28;20033;-75
2023/02/04 01:15:10;;;;;;;2.28;1.15;;;;;;;;;;4992049;28;20029;-74
2023/02/04 01:17:36;;;;;;;3.67;1.25;;;;;;;;;;4990165;28;20117;-73
2023/02/04 01:20:02;;;;;;;3.08;1.23;;;;;;;;;;4992262;28;20027;-73
2023/02/04 01:22:28;;;;;;;1.05;0.82;;;;;;;;;;4992384;28;20049;-75
2023/02/04 01:24:54;;;;;;;2.58;1.42;;;;;;;;;;4991942;28;20539;-75
2023/02/04 01:27:20;;;;;;;1.75;1.00;;;;;;;;;;4990911;28;20069;-74
2023/02/04 01:29:46;;;;;;;1.77;0.80;;;;;;;;;;4991838;28;20097;-75
2023/02/04 01:32:12;;;;;;;1.95;0.90;;;;;;;;;;4992099;28;20022;-74
2023/02/04 01:34:38;;;;;;;3.13;1.13;;;;;;;;;;4991468;28;20113;-76
2023/02/04 01:37:04;;;;;;;3.65;1.05;;;;;;;;;;4990864;28;20018;-74
2023/02/04 01:39:30;;;;;;;1.33;1.13;;;;;;;;;;4991287;28;20030;-75
2023/02/04 01:41:56;;;;;;;2.00;1.77;;;;;;;;;;4989099;28;20022;-75
2023/02/04 01:44:23;;;;;;;3.15;2.13;;;;;;;;;;4989984;28;20022;-75
2023/02/04 01:46:48;;;;;;;2.60;1.50;;;;;;;;;;4990240;28;20030;-75
2023/02/04 01:49:14;;;;;;;2.22;1.20;;;;;;;;;;4989247;28;20030;-75
2023/02/04 01:51:41;;;;;;;3.08;1.23;;;;;;;;;;4989873;28;20030;-74
2023/02/04 01:54:10;;;;;;;4.07;1.58;;;;;;;;;;4990079;28;20034;-76
2023/02/04 01:56:36;;;;;;;3.67;1.20;;;;;;;;;;4990366;28;20484;-75
2023/02/04 01:59:02;;;;;;;3.30;1.55;;;;;;;;;;4990098;28;20084;-73
2023/02/04 02:01:37;;;;;;;3.90;1.75;;;;;;;;;;4991232;28;20031;-72
2023/02/04 02:04:04;;;;;;;3.40;1.67;;;;;;;;;;4991416;28;20374;-76
2023/02/04 02:06:30;;;;;;;3.17;1.83;;;;;;;;;;4991312;28;20027;-75
2023/02/04 02:08:57;;;;;;;3.15;1.92;;;;;;;;;;4990152;28;20076;-74
2023/02/04 02:11:23;;;;;;;6.07;2.03;;;;;;;;;;4990909;28;20517;-76
2023/02/04 02:13:49;;;;;;;2.67;1.77;;;;;;;;;;4989473;28;20049;-75
2023/02/04 02:16:15;;;;;;;3.30;2.00;;;;;;;;;;4991237;28;20493;-75
2023/02/04 02:18:41;;;;;;;3.47;1.48;;;;;;;;;;4990184;28;20509;-75
2023/02/04 02:21:10;;;;;;;2.65;1.30;;;;;;;;;;4989859;28;20033;-76
2023/02/04 02:23:53;;;;;;;1.40;1.17;;;;;;;;;;4989625;28;20022;-76
2023/02/04 02:26:19;;;;;;;3.15;1.75;;;;;;;;;;4991314;28;20026;-73
2023/02/04 02:28:49;;;;;;;2.13;1.17;;;;;;;;;;4988834;28;20145;-74
2023/02/04 02:31:15;;;;;;;1.75;1.30;;;;;;;;;;4990669;28;20022;-74
2023/02/04 02:33:41;;;;;;;3.83;1.85;;;;;;;;;;4990390;28;20034;-74
2023/02/04 02:36:07;;;;;;;3.75;1.65;;;;;;;;;;4989321;28;20040;-74
2023/02/04 02:38:34;;;;;;;2.90;1.90;;;;;;;;;;4990558;28;20468;-73
2023/02/04 02:40:59;;;;;;;2.20;1.42;;;;;;;;;;4994988;28;20049;-73
2023/02/04 02:43:26;;;;;;;3.47;1.80;;;;;;;;;;4994765;28;20023;-74
2023/02/04 02:45:54;;;;;;;1.50;1.40;;;;;;;;;;4993789;28;20054;-74
2023/02/04 02:48:20;;;;;;;3.30;1.67;;;;;;;;;;4993031;28;20041;-75
2023/02/04 02:50:47;;;;;;;3.67;1.70;;;;;;;;;;4993483;28;20109;-75
2023/02/04 02:53:14;;;;;;;2.42;1.65;;;;;;;;;;4995192;28;20030;-74
2023/02/04 02:55:40;;;;;;;2.03;1.83;;;;;;;;;;4995476;28;20032;-74
2023/02/04 02:58:14;;;;;;;4.63;1.80;;;;;;;;;;4995378;28;20446;-75
2023/02/04 03:00:40;;;;;;;3.00;1.70;;;;;;;;;;4995096;28;20065;-75
2023/02/04 03:03:12;;;;;;;2.25;1.80;;;;;;;;;;4994499;28;20022;-75
2023/02/04 03:05:42;;;;;;;2.53;2.28;;;;;;;;;;4992910;28;20029;-74
2023/02/04 03:08:11;;;;;;;3.33;2.00;;;;;;;;;;4992724;28;20488;-74
2023/02/04 03:10:37;;;;;;;3.03;2.05;;;;;;;;;;4994496;28;20437;-74
2023/02/04 03:13:03;;;;;;;3.83;2.25;;;;;;;;;;4994280;28;20084;-73
2023/02/04 03:15:30;;;;;;;3.22;1.60;;;;;;;;;;4992727;28;20104;-73
2023/02/04 03:17:56;;;;;;;3.47;1.55;;;;;;;;;;4993458;28;20033;-73
2023/02/04 03:20:23;;;;;;;2.97;1.83;;;;;;;;;;4992931;28;20499;-74
2023/02/04 03:22:50;;;;;;;2.35;1.55;;;;;;;;;;4994645;28;20769;-74
2023/02/04 03:25:16;;;;;;;2.30;1.55;;;;;;;;;;4994345;28;20077;-74
2023/02/04 03:27:42;;;;;;;2.00;1.50;;;;;;;;;;4991911;28;20026;-75
2023/02/04 03:30:08;;;;;;;2.15;1.33;;;;;;;;;;4993941;28;20034;-75
2023/02/04 03:32:34;;;;;;;2.63;1.77;;;;;;;;;;4993803;28;20030;-76
2023/02/04 03:35:00;;;;;;;4.10;2.08;;;;;;;;;;4993621;28;20089;-74
2023/02/04 03:37:26;;;;;;;2.95;2.17;;;;;;;;;;4993135;28;20022;-74
2023/02/04 03:39:52;;;;;;;3.55;1.85;;;;;;;;;;4992415;28;20026;-76
2023/02/04 03:42:18;;;;;;;2.38;2.00;;;;;;;;;;4993662;28;20555;-76
2023/02/04 03:44:44;;;;;;;3.03;1.70;;;;;;;;;;4992441;28;20033;-74
2023/02/04 03:47:10;;;;;;;3.95;2.00;;;;;;;;;;4993008;28;20496;-74
2023/02/04 03:49:36;;;;;;;2.92;1.85;;;;;;;;;;4993383;28;20022;-73
2023/02/04 03:52:03;;;;;;;2.65;1.42;;;;;;;;;;4993408;28;20034;-75
2023/02/04 03:54:29;;;;;;;5.03;1.42;;;;;;;;;;4993523;28;20045;-73
2023/02/04 03:56:55;;;;;;;1.83;1.50;;;;;;;;;;4993414;28;20505;-74
2023/02/04 03:59:21;;;;;;;1.60;1.50;;;;;;;;;;4991378;28;20022;-74
2023/02/04 04:01:47;;;;;;;2.38;1.60;;;;;;;;;;4993231;28;20034;-72
2023/02/04 04:04:13;;;;;;;2.92;1.98;;;;;;;;;;4993374;28;20034;-73
2023/02/04 04:06:40;;;;;;;2.28;1.92;;;;;;;;;;4993536;28;20042;-74
2023/02/04 04:09:06;;;;;;;3.33;1.50;;;;;;;;;;4992972;28;20106;-74
2023/02/04 04:11:32;;;;;;;2.35;1.90;;;;;;;;;;4993900;28;20380;-75
2023/02/04 04:13:58;;;;;;;2.60;1.88;;;;;;;;;;4993658;28;20065;-75
2023/02/04 04:16:24;;;;;;;3.90;1.90;;;;;;;;;;4993727;28;20019;-74
2023/02/04 04:18:50;;;;;;;2.20;1.85;;;;;;;;;;4992807;28;20036;-74
2023/02/04 04:21:16;;;;;;;3.97;1.85;;;;;;;;;;4993061;28;20026;-73
2023/02/04 04:23:42;;;;;;;2.70;1.85;;;;;;;;;;4992994;28;20077;-74
2023/02/04 04:26:08;;;;;;;2.08;1.55;;;;;;;;;;4993297;28;20033;-73
2023/02/04 04:28:33;;;;;;;1.63;1.40;;;;;;;;;;4992317;28;20014;-75
2023/02/04 04:31:00;;;;;;;1.23;1.10;;;;;;;;;;4992828;28;20455;-73
2023/02/04 04:33:26;;;;;;;1.50;1.40;;;;;;;;;;4992883;28;20457;-73
2023/02/04 04:35:51;;;;;;;1.63;1.10;;;;;;;;;;4992820;28;20114;-73
2023/02/04 04:38:17;;;;;;;1.77;1.42;;;;;;;;;;4990859;28;20026;-75
2023/02/04 04:40:43;;;;;;;1.55;1.40;;;;;;;;;;4992653;28;20524;-74
2023/02/04 04:43:09;;;;;;;2.20;1.35;;;;;;;;;;4992744;28;20120;-74
2023/02/04 04:45:35;;;;;;;2.83;1.98;;;;;;;;;;4992642;28;20023;-74
2023/02/04 04:48:01;;;;;;;1.90;1.48;;;;;;;;;;4992506;28;20470;-74
2023/02/04 04:50:27;;;;;;;2.17;1.80;;;;;;;;;;4992716;28;20600;-74
2023/02/04 04:52:53;;;;;;;2.72;2.08;;;;;;;;;;4992597;28;20030;-75
2023/02/04 04:55:20;;;;;;;3.13;2.08;;;;;;;;;;4992483;28;20049;-75
2023/02/04 04:57:46;;;;;;;2.13;1.90;;;;;;;;;;4991628;28;20104;-75
2023/02/04 05:00:15;;;;;;;3.72;2.58;;;;;;;;;;4992389;28;20057;-74
2023/02/04 05:02:42;;;;;;;3.38;2.17;;;;;;;;;;4990722;28;20038;-74
2023/02/04 05:05:08;;;;;;;2.42;2.17;;;;;;;;;;4992374;28;20022;-74
2023/02/04 05:07:34;;;;;;;3.38;2.03;;;;;;;;;;4991369;28;20085;-75
2023/02/04 05:10:00;;;;;;;4.35;2.63;;;;;;;;;;4991907;28;20087;-73
2023/02/04 05:12:26;;;;;;;4.55;2.42;;;;;;;;;;4992329;28;20030;-73
2023/02/04 05:14:52;;;;;;;2.42;2.10;;;;;;;;;;4990829;28;20121;-73
2023/02/04 05:17:18;;;;;;;4.43;2.33;;;;;;;;;;4989265;28;20101;-73
2023/02/04 05:19:44;;;;;;;4.07;2.45;;;;;;;;;;4989713;28;20484;-74
2023/02/04 05:22:10;;;;;;;5.93;2.38;;;;;;;;;;4990492;28;20105;-73
2023/02/04 05:24:36;;;;;;;5.03;2.42;;;;;;;;;;4989959;28;20030;-73
2023/02/04 05:27:02;;;;;;;3.53;2.17;;;;;;;;;;4989612;28;20026;-73
2023/02/04 05:29:28;;;;;;;4.20;2.33;;;;;;;;;;4992898;28;20104;-73
2023/02/04 05:31:54;;;;;;;3.17;2.00;;;;;;;;;;5003676;28;20030;-74
2023/02/04 05:34:20;;;;;;;4.03;2.15;;;;;;;;;;5003400;28;20069;-73
2023/02/04 05:36:46;;;;;;;3.65;2.13;;;;;;;;;;5000750;28;20037;-74
2023/02/04 05:39:12;;;;;;;3.92;1.73;;;;;;;;;;4989616;28;20037;-73
2023/02/04 05:41:38;;;;;;;3.33;2.00;;;;;;;;;;4990188;28;20030;-74
2023/02/04 05:44:04;;;;;;;3.70;1.95;;;;;;;;;;4993973;28;20028;-74
2023/02/04 05:46:30;;;;;;;2.08;1.77;;;;;;;;;;4993199;28;20084;-73
2023/02/04 05:48:56;;;;;;;4.18;2.05;;;;;;;;;;4991017;28;20453;-73
2023/02/04 05:51:22;;;;;;;4.85;1.73;;;;;;;;;;4989717;28;20029;-73
2023/02/04 05:53:48;;;;;;;10.18;1.83;;;;;;;;;;4989790;28;20037;-74
2023/02/04 05:56:14;;;;;;;5.57;2.10;;;;;;;;;;4988644;28;20032;-74
2023/02/04 05:58:40;;;;;;;2.13;1.40;;;;;;;;;;4989336;28;20026;-73
2023/02/04 06:01:06;;;;;;;3.22;1.55;;;;;;;;;;4988457;28;20031;-74
2023/02/04 06:03:32;;;;;;;3.15;1.73;;;;;;;;;;4983939;28;20019;-73
2023/02/04 06:05:58;;;;;;;2.50;1.60;;;;;;;;;;4985109;28;20019;-74
2023/02/04 06:08:24;;;;;;;4.70;1.60;;;;;;;;;;4990315;28;20029;-73
2023/02/04 06:10:50;;;;;;;2.75;1.30;;;;;;;;;;4991446;28;20101;-75
2023/02/04 06:13:16;;;;;;;2.47;1.45;;;;;;;;;;4990327;28;20019;-74
2023/02/04 06:15:42;;;;;;;2.83;1.50;;;;;;;;;;4990903;28;20058;-74
2023/02/04 06:18:08;;;;;;;5.88;2.00;;;;;;;;;;4988922;28;20117;-75
2023/02/04 06:20:34;;;;;;;1.60;1.50;;;;;;;;;;4991118;28;20043;-75
2023/02/04 06:23:00;;;;;;;2.53;1.52;;;;;;;;;;4990569;28;20026;-72
2023/02/04 06:25:26;;;;;;;5.22;1.92;;;;;;;;;;4991063;28;20161;-75
2023/02/04 06:27:52;;;;;;;5.13;1.80;;;;;;;;;;4989909;28;20029;-72
2023/02/04 06:30:19;;;;;;;3.97;1.90;;;;;;;;;;4989112;28;20026;-71
2023/02/04 06:32:44;;;;;;;4.78;2.03;;;;;;;;;;4986981;28;20030;-74
2023/02/04 06:35:12;;;;;;;3.97;1.75;;;;;;;;;;4992333;28;20038;-74
2023/02/04 06:37:38;;;;;;;3.88;2.17;;;;;;;;;;4989288;28;20018;-74
2023/02/04 06:40:04;;;;;;;6.55;2.17;;;;;;;;;;4991037;28;20037;-74
2023/02/04 06:42:30;;;;;;;3.38;1.98;;;;;;;;;;4991568;28;20033;-74
2023/02/04 06:44:56;;;;;;;3.97;2.20;;;;;;;;;;4990951;28;20022;-75
2023/02/04 06:47:22;;;;;;;2.10;1.35;;;;;;;;;;4988349;28;20405;-74
2023/02/04 06:49:48;;;;;;;5.20;2.13;;;;;;;;;;4990290;28;20062;-75
2023/02/04 06:52:14;;;;;;;5.93;2.28;;;;;;;;;;4987983;28;20497;-73
2023/02/04 06:54:40;;;;;;;3.40;2.20;;;;;;;;;;4989285;28;20310;-73
2023/02/04 06:57:06;;;;;;;3.03;2.00;;;;;;;;;;4989749;28;20038;-72
2023/02/04 06:59:33;;;;;;;3.17;2.00;;;;;;;;;;4989948;28;20031;-71
2023/02/04 07:01:59;;;;;;;5.22;1.90;;;;;;;;;;4990447;28;20034;-73
2023/02/04 07:04:25;;;;;;;6.18;2.30;;;;;;;;;;4990482;28;20035;-74
2023/02/04 07:06:51;;;;;;;4.55;2.05;;;;;;;;;;4991708;28;20026;-73
2023/02/04 07:09:17;;;;;;;5.10;2.03;;;;;;;;;;4989480;28;20105;-73
2023/02/04 07:11:43;;;;;;;2.47;1.38;;;;;;;;;;4990972;28;20110;-72
2023/02/04 07:14:09;;;;;;;5.00;1.75;;;;;;;;;;4990769;28;20484;-75
2023/02/04 07:16:36;;;;;;;4.43;2.10;;;;;;;;;;4990056;28;20026;-72
2023/02/04 07:19:02;;;;;;;3.75;1.70;;;;;;;;;;4988726;28;20034;-72
2023/02/04 07:21:28;;;;;;;6.05;1.52;;;;;;;;;;4989710;28;20022;-73
2023/02/04 07:23:54;;;;;;;5.07;1.70;;;;;;;;;;4989900;28;20034;-72
2023/02/04 07:26:20;;;;;;;5.13;2.08;;;;;;;;;;4993094;28;20049;-73
2023/02/04 07:28:46;;;;;;;5.22;2.03;;;;;;;;;;4989211;28;20038;-73
2023/02/04 07:31:12;;;;;;;4.38;2.45;;;;;;;;;;4992785;28;20438;-72
2023/02/04 07:33:38;;;;;;;5.43;2.10;;;;;;;;;;4994642;28;20405;-72
2023/02/04 07:36:04;;;;;;;2.55;1.75;;;;;;;;;;4994702;28;20038;-72
2023/02/04 07:38:30;;;;;;;3.53;1.50;;;;;;;;;;4993756;28;20046;-72
2023/02/04 07:40:56;;;;;;;3.72;1.50;;;;;;;;;;4994462;28;20030;-73
2023/02/04 07:43:22;;;;;;;4.07;1.48;;;;;;;;;;4994342;28;20102;-73
2023/02/04 07:45:48;;;;;;;3.25;2.03;;;;;;;;;;4994356;28;20030;-72
2023/02/04 07:48:14;;;;;;;2.80;1.80;;;;;;;;;;4994365;28;20025;-73
2023/02/04 07:50:40;;;;;;;5.20;2.00;;;;;;;;;;4994569;28;20037;-73
2023/02/04 07:53:06;;;;;;;3.35;1.40;;;;;;;;;;4993989;28;20023;-74
2023/02/04 07:55:32;;;;;;;4.03;1.90;;;;;;;;;;4994190;28;20117;-72
2023/02/04 07:57:58;;;;;;;2.22;1.48;;;;;;;;;;4993183;28;20038;-72
2023/02/04 08:00:24;;;;;;;3.47;1.70;;;;;;;;;;4994070;28;20058;-72
2023/02/04 08:02:51;;;;;;;2.45;1.55;;;;;;;;;;4993978;28;20497;-73
2023/02/04 08:05:17;;;;;;;2.38;1.60;;;;;;;;;;4992271;28;20018;-73
2023/02/04 08:07:43;;;;;;;3.55;1.70;;;;;;;;;;4991369;28;20073;-72
2023/02/04 08:10:09;;;;;;;2.50;1.45;;;;;;;;;;4993999;28;20063;-73
2023/02/04 08:12:36;;;;;;;3.03;1.75;;;;;;;;;;4993646;28;20022;-73
2023/02/04 08:15:02;;;;;;;5.57;2.67;;;;;;;;;;4993362;28;20045;-73
2023/02/04 08:17:28;;;;;;;6.72;3.42;;;;;;;;;;4991643;28;20030;-73
2023/02/04 08:19:55;;;;;;;2.67;1.73;;;;;;;;;;4993340;28;20558;-73
2023/02/04 08:22:21;;;;;;;4.80;2.05;;;;;;;;;;4991826;28;20058;-71
2023/02/04 08:24:47;;;;;;;5.78;2.25;;;;;;;;;;4992003;28;20072;-72
2023/02/04 08:27:13;;;;;;;4.63;1.85;;;;;;;;;;4991496;28;20396;-72
2023/02/04 08:29:39;;;;;;;12.40;2.75;;;;;;;;;;4993087;28;20117;-71
2023/02/04 08:32:05;;;;;;;3.90;2.03;;;;;;;;;;4994215;28;20074;-71
2023/02/04 08:34:31;;;;;;;7.10;2.92;;;;;;;;;;4992424;28;20033;-72
2023/02/04 08:36:57;;;;;;;5.93;1.95;;;;;;;;;;4992193;28;20026;-71
2023/02/04 08:39:23;;;;;;;5.57;1.90;;;;;;;;;;4992235;28;20026;-73
2023/02/04 08:41:50;;;;;;;3.67;1.80;;;;;;;;;;4990926;28;20030;-73
2023/02/04 08:44:16;;;;;;;4.55;1.83;;;;;;;;;;4990833;28;20065;-72
2023/02/04 08:46:42;;;;;;;3.35;1.80;;;;;;;;;;4989902;28;20101;-72
2023/02/04 08:49:08;;;;;;;4.43;1.98;;;;;;;;;;4989966;28;20110;-71
2023/02/04 08:51:34;;;;;;;3.35;1.58;;;;;;;;;;4991165;28;20034;-73
2023/02/04 08:54:00;;;;;;;4.97;2.00;;;;;;;;;;4990854;28;20022;-73
2023/02/04 08:56:26;;;;;;;7.18;2.38;;;;;;;;;;4990748;28;20338;-73
2023/02/04 08:58:52;;;;;;;3.08;1.98;;;;;;;;;;4989880;28;20022;-73
2023/02/04 09:01:18;;;;;;;5.88;2.00;;;;;;;;;;4990340;28;20454;-73
2023/02/04 09:03:44;;;;;;;4.88;2.30;;;;;;;;;;4990502;28;20029;-74
2023/02/04 09:06:11;;;;;;;6.38;2.72;;;;;;;;;;4990397;28;20015;-73
2023/02/04 09:08:37;;;;;;;4.28;1.83;;;;;;;;;;4991545;28;20026;-73
2023/02/04 09:11:03;;;;;;;8.38;2.13;;;;;;;;;;4990207;28;20022;-73
2023/02/04 09:13:29;;;;;;;2.83;1.58;;;;;;;;;;4990455;28;20489;-73
2023/02/04 09:15:56;;;;;;;4.97;1.90;;;;;;;;;;4989865;28;20457;-73
2023/02/04 09:18:24;;;;;;;5.75;2.10;;;;;;;;;;4993841;28;20022;-72
2023/02/04 09:20:50;;;;;;;4.25;1.92;;;;;;;;;;4990738;28;20030;-72
2023/02/04 09:23:16;;;;;;;5.20;1.95;;;;;;;;;;4986338;28;20018;-72
2023/02/04 09:25:43;;;;;;;3.72;1.83;;;;;;;;;;4990490;28;20014;-69
2023/02/04 09:28:10;;;;;;;4.95;2.45;;;;;;;;;;4989920;28;20026;-72
2023/02/04 09:30:36;;;;;;;4.00;2.55;;;;;;;;;;4992123;28;20033;-70
2023/02/04 09:33:02;;;;;;;5.07;2.10;;;;;;;;;;4990427;28;20085;-72
2023/02/04 09:35:28;;;;;;;5.60;2.13;;;;;;;;;;4991865;28;20037;-72
2023/02/04 09:37:54;;;;;;;3.85;2.30;;;;;;;;;;4990906;28;20031;-73
2023/02/04 09:40:20;;;;;;;4.93;2.17;;;;;;;;;;4991941;28;20030;-71
2023/02/04 09:42:51;;;;;;;5.03;2.00;;;;;;;;;;4990680;28;20030;-73
2023/02/04 09:45:19;;;;;;;6.85;3.38;;;;;;;;;;4991818;28;20021;-73
2023/02/04 09:47:45;;;;;;;8.05;4.10;;;;;;;;;;4989275;28;20034;-69
2023/02/04 09:50:18;;;;;;;6.50;2.65;;;;;;;;;;4992124;28;20105;-73
2023/02/04 09:52:46;;;;;;;4.50;2.92;;;;;;;;;;4991875;28;20030;-73
2023/02/04 09:55:13;;;;;;;3.50;1.88;;;;;;;;;;4991620;28;20054;-73
2023/02/04 09:57:40;;;;;;;4.80;2.13;;;;;;;;;;4991051;28;20053;-73
2023/02/04 10:00:16;;;;;;;4.78;2.13;;;;;;;;;;4991449;28;20030;-73
2023/02/04 10:02:42;;;;;;;5.60;2.05;;;;;;;;;;4991592;28;20053;-72
2023/02/04 10:05:18;;;;;;;3.45;2.00;;;;;;;;;;4991382;28;20484;-72
2023/02/04 10:07:45;;;;;;;6.22;2.25;;;;;;;;;;4989519;28;20050;-73
2023/02/04 10:10:24;;;;;;;9.07;3.30;;;;;;;;;;4991764;28;20108;-72
2023/02/04 10:12:50;;;;;;;3.38;2.05;;;;;;;;;;4990079;28;20173;-72
2023/02/04 10:15:21;;;;;;;4.40;2.22;;;;;;;;;;4971224;28;20018;-72
2023/02/04 10:17:48;;;;;;;2.42;1.70;;;;;;;;;;4987622;28;20473;-72
2023/02/04 10:20:15;;;;;;;8.15;2.47;;;;;;;;;;4989651;28;20065;-72
2023/02/04 10:22:41;;;;;;;5.00;2.40;;;;;;;;;;4989569;28;20030;-73
2023/02/04 10:25:11;;;;;;;3.75;1.73;;;;;;;;;;4989047;28;20030;-71
2023/02/04 10:27:46;;;;;;;3.75;1.80;;;;;;;;;;4989086;28;20097;-72
2023/02/04 10:30:18;;;;;;;4.72;1.95;;;;;;;;;;4989358;28;20030;-71
2023/02/04 10:32:44;;;;;;;3.55;1.90;;;;;;;;;;4991404;28;20049;-72
2023/02/04 10:35:13;;;;;;;6.57;1.92;;;;;;;;;;4990771;28;20041;-71
2023/02/04 10:37:39;;;;;;;6.90;2.38;;;;;;;;;;4990437;28;20022;-71
2023/02/04 10:40:05;;;;;;;3.80;1.92;;;;;;;;;;4991305;28;20027;-71
2023/02/04 10:42:31;;;;;;;4.55;2.03;;;;;;;;;;4991520;28;20097;-71
2023/02/04 10:44:58;;;;;;;4.40;1.67;;;;;;;;;;4990949;28;20026;-71
2023/02/04 10:47:24;;;;;;;2.78;1.42;;;;;;;;;;4991084;28;20015;-71
2023/02/04 10:50:03;;;;;;;8.30;2.38;;;;;;;;;;4991461;28;20026;-72
2023/02/04 10:52:39;;;;;;;3.22;1.58;;;;;;;;;;5008110;28;20018;-71
2023/02/04 10:55:06;;;;;;;5.95;2.03;;;;;;;;;;5009363;28;20037;-73
2023/02/04 10:57:35;;;;;;;4.25;2.55;;;;;;;;;;5007417;28;20034;-71
2023/02/04 11:00:01;;;;;;;4.90;2.05;;;;;;;;;;4995720;28;20034;-73
2023/02/04 11:02:41;;;;;;;3.88;2.10;;;;;;;;;;4996913;28;20041;-71
2023/02/04 11:05:15;;;;;;;3.90;2.10;;;;;;;;;;4994543;28;20027;-71
2023/02/04 11:07:42;;;;;;;3.22;2.20;;;;;;;;;;4994878;28;20022;-71
2023/02/04 11:10:16;;;;;;;4.07;2.30;;;;;;;;;;4994445;28;20259;-72
2023/02/04 11:12:46;;;;;;;7.05;2.33;;;;;;;;;;4994880;28;20161;-72
2023/02/04 11:15:34;;;;;;;2.63;2.20;;;;;;;;;;4991747;28;20018;-73
2023/02/04 11:18:08;;;;;;;4.55;2.20;;;;;;;;;;4993745;28;20030;-72
2023/02/04 11:20:38;;;;;;;4.40;1.80;;;;;;;;;;4995022;28;20022;-72
2023/02/04 11:23:14;;;;;;;5.90;2.57;;;;;;;;;;4994989;28;20025;-71
2023/02/04 11:25:40;;;;;;;7.03;2.35;;;;;;;;;;4994039;28;20731;-71
2023/02/04 11:28:14;;;;;;;3.78;2.15;;;;;;;;;;4993994;28;20042;-71
2023/02/04 11:30:40;;;;;;;7.78;3.03;;;;;;;;;;4994346;28;20053;-72
2023/02/04 11:33:23;;;;;;;4.32;2.28;;;;;;;;;;4994243;28;20034;-72
2023/02/04 11:36:03;;;;;;;5.40;2.38;;;;;;;;;;4993827;28;20109;-72
2023/02/04 11:38:30;;;;;;;5.20;2.53;;;;;;;;;;4993753;28;20088;-72
2023/02/04 11:40:56;;;;;;;2.42;1.85;;;;;;;;;;4994278;28;20133;-72
2023/02/04 11:43:22;;;;;;;2.88;2.40;;;;;;;;;;4994226;28;20122;-73
2023/02/04 11:45:48;;;;;;;6.90;3.67;;;;;;;;;;4993512;28;20516;-72
2023/02/04 11:48:17;;;;;;;4.57;2.35;;;;;;;;;;4993431;28;20046;-71
2023/02/04 11:50:44;;;;;;;6.03;3.33;;;;;;;;;;4993615;28;20033;-72
2023/02/04 11:53:11;;;;;;;7.70;2.58;;;;;;;;;;4993717;28;20088;-70
2023/02/04 11:55:42;;;;;;;4.35;2.30;;;;;;;;;;4993655;28;20149;-73
2023/02/04 11:58:14;;;;;;;4.43;2.47;;;;;;;;;;4993249;28;20390;-72
2023/02/04 12:00:41;;;;;;;8.10;3.55;;;;;;;;;;4993619;28;20113;-72
2023/02/04 12:03:20;;;;;;;7.03;3.15;;;;;;;;;;4989798;28;20038;-70
2023/02/04 12:05:46;;;;;;;6.38;2.65;;;;;;;;;;4987183;28;20100;-69
2023/02/04 12:08:24;;;;;;;4.00;1.90;;;;;;;;;;4992816;28;20077;-73
2023/02/04 12:10:51;;;;;;;3.63;1.70;;;;;;;;;;4993106;28;20073;-72
2023/02/04 12:13:19;;;;;;;4.28;1.85;;;;;;;;;;4977074;28;20481;-72
2023/02/04 12:15:52;;;;;;;3.05;1.65;;;;;;;;;;4994071;28;20389;-71
2023/02/04 12:18:18;;;;;;;4.55;1.50;;;;;;;;;;4993077;28;20026;-72
2023/02/04 12:20:44;;;;;;;4.28;1.50;;;;;;;;;;4993837;28;20499;-71
2023/02/04 12:23:10;;;;;;;3.85;1.42;;;;;;;;;;4993215;28;20029;-71
2023/02/04 12:25:36;;;;;;;3.20;1.48;;;;;;;;;;4993477;28;20366;-71
2023/02/04 12:28:02;;;;;;;7.00;2.13;;;;;;;;;;4992578;28;20026;-72
2023/02/04 12:30:28;;;;;;;4.80;1.83;;;;;;;;;;4992309;28;20037;-72
2023/02/04 12:32:54;;;;;;;6.50;1.75;;;;;;;;;;4993211;28;20493;-72
2023/02/04 12:35:20;;;;;;;5.03;1.85;;;;;;;;;;5003905;22;20086;-74
2023/02/04 12:37:46;;;;;;;6.47;3.40;;;;;;;;;;4971516;28;20026;-75
2023/02/04 12:40:16;;;;;;;4.65;1.92;;;;;;;;;;4983790;28;20022;-74
2023/02/04 12:42:42;;;;;;;2.37;1.40;;;;;;;;;;4978089;28;20381;-74
2023/02/04 12:45:10;;;;;;;5.03;1.85;;;;;;;;;;4973265;28;20034;-74
2023/02/04 12:47:36;;;;;;;4.85;2.40;;;;;;;;;;4973052;28;20096;-76
2023/02/04 12:50:02;;;;;;;3.47;2.17;;;;;;;;;;4974634;28;20030;-76
2023/02/04 12:52:28;;;;;;;5.93;1.85;;;;;;;;;;4981148;28;20019;-77
2023/02/04 12:54:54;;;;;;;4.28;2.20;;;;;;;;;;4981091;28;20023;-77
2023/02/04 12:57:20;;;;;;;4.93;2.15;;;;;;;;;;4993988;28;20027;-74
2023/02/04 12:59:48;;;;;;;4.82;2.03;;;;;;;;;;4999454;28;20027;-76
2023/02/04 13:02:14;;;;;;;2.42;1.42;;;;;;;;;;4986188;28;20078;-75
2023/02/04 13:04:40;;;;;;;3.78;1.50;;;;;;;;;;4983332;28;20033;-76
2023/02/04 13:07:06;;;;;;;3.33;1.10;;;;;;;;;;4979332;28;20101;-72
2023/02/04 13:09:33;;;;;;;4.47;1.58;;;;;;;;;;4980566;28;20019;-76
2023/02/04 13:11:59;;;;;;;7.75;1.77;;;;;;;;;;4984583;28;20061;-74
2023/02/04 13:14:25;;;;;;;4.65;1.38;;;;;;;;;;4983726;28;20508;-75
2023/02/04 13:16:51;;;;;;;2.22;1.25;;;;;;;;;;4980513;28;20026;-76
2023/02/04 13:19:17;;;;;;;4.60;1.73;;;;;;;;;;4981819;28;20034;-76
2023/02/04 13:21:43;;;;;;;4.68;1.35;;;;;;;;;;4970922;28;20059;-75
2023/02/04 13:24:09;;;;;;;3.08;1.65;;;;;;;;;;4969945;28;20089;-76
2023/02/04 13:26:35;;;;;;;1.50;0.95;;;;;;;;;;4980806;28;20034;-76
2023/02/04 13:29:01;;;;;;;3.08;1.20;;;;;;;;;;4978889;28;20073;-76
2023/02/04 13:31:27;;;;;;;1.77;1.10;;;;;;;;;;4988813;28;20627;-75
2023/02/04 13:33:53;;;;;;;2.40;1.40;;;;;;;;;;4983547;28;20397;-75
2023/02/04 13:36:19;;;;;;;3.83;1.17;;;;;;;;;;4980856;28;20033;-74
2023/02/04 13:38:45;;;;;;;3.75;1.50;;;;;;;;;;4984999;28;20058;-76
2023/02/04 13:41:11;;;;;;;2.47;1.20;;;;;;;;;;4982431;28;20030;-75
2023/02/04 13:43:37;;;;;;;3.85;1.45;;;;;;;;;;4972090;28;20030;-76
2023/02/04 13:46:04;;;;;;;4.32;1.00;;;;;;;;;;4981755;28;20134;-75
2023/02/04 13:48:30;;;;;;;4.47;1.45;;;;;;;;;;4991134;28;20030;-76
2023/02/04 13:50:56;;;;;;;1.67;0.93;;;;;;;;;;4990231;28;20096;-76
2023/02/04 13:53:22;;;;;;;6.25;0.77;;;;;;;;;;4991456;28;20034;-76
2023/02/04 13:55:48;;;;;;;1.08;0.73;;;;;;;;;;4990722;28;20084;-76
2023/02/04 13:58:14;;;;;;;3.50;1.20;;;;;;;;;;4989121;28;20516;-75
2023/02/04 14:00:40;;;;;;;1.63;0.88;;;;;;;;;;4990273;28;20081;-76
2023/02/04 14:03:06;;;;;;;3.15;1.48;;;;;;;;;;4988025;28;20505;-77
2023/02/04 14:05:32;;;;;;;1.58;0.82;;;;;;;;;;4970356;28;20098;-76
2023/02/04 14:07:58;;;;;;;3.42;0.82;;;;;;;;;;4970052;28;20114;-76
2023/02/04 14:10:25;;;;;;;1.65;0.75;;;;;;;;;;4971661;28;20430;-76
2023/02/04 14:12:51;;;;;;;2.20;1.08;;;;;;;;;;4971648;28;20038;-75
2023/02/04 14:15:17;;;;;;;3.58;1.65;;;;;;;;;;4971707;28;20054;-77
2023/02/04 14:17:43;;;;;;;6.13;1.13;;;;;;;;;;4970943;28;20031;-76
2023/02/04 14:20:10;;;;;;;5.35;1.50;;;;;;;;;;4971638;28;20126;-76
2023/02/04 14:22:36;;;;;;;3.45;1.73;;;;;;;;;;4971726;28;20098;-76
2023/02/04 14:25:02;;;;;;;3.00;1.60;;;;;;;;;;4970360;28;20057;-75
2023/02/04 14:27:28;;;;;;;4.53;1.08;;;;;;;;;;4971013;28;20108;-76
2023/02/04 14:29:54;;;;;;;4.55;1.13;;;;;;;;;;4971688;28;20023;-76
2023/02/04 14:32:20;;;;;;;2.88;1.08;;;;;;;;;;4971526;28;20031;-76
2023/02/04 14:34:46;;;;;;;2.95;1.20;;;;;;;;;;4970543;28;20035;-76
2023/02/04 14:37:12;;;;;;;4.57;1.48;;;;;;;;;;4973752;28;20110;-75
2023/02/04 14:39:38;;;;;;;2.53;1.10;;;;;;;;;;4975707;28;20069;-76
2023/02/04 14:42:04;;;;;;;2.70;1.20;;;;;;;;;;4976127;28;20062;-74